sensor_id;sensor_type;location;lat;lon;timestamp;P1;durP1;ratioP1;P2;durP2;ratioP2
57899;SDS011;60605;53.716;19.940;2022-09-01T00:03:01;3.70;;;3.40;;
57899;SDS011;60605;53.716;19.940;2022-09-01T00:08:04;3.70;;;3.40;;
57899;SDS011;60605;53.716;19.940;2022-09-01T00:13:06;5.40;;;4.30;;
57899;SDS011;60605;53.716;19.940;2022-09-01T00:18:09;6.80;;;3.90;;
57899;SDS011;60605;53.716;19.940;2022-09-01T00:23:11;3.70;;;3.40;;
57899;SDS011;60605;53.716;19.940;2022-09-01T00:28:13;5.00;;;3.10;;
57899;SDS011;60605;53.716;19.940;2022-09-01T00:33:15;4.80;;;3.00;;
57899;SDS011;60605;53.716;19.940;2022-09-01T00:38:17;3.90;;;3.00;;
57899;SDS011;60605;53.716;19.940;2022-09-01T00:43:20;5.60;;;3.50;;
57899;SDS011;60605;53.716;19.940;2022-09-01T00:48:37;3.50;;;3.20;;
57899;SDS011;60605;53.716;19.940;2022-09-01T00:53:40;3.20;;;2.80;;
57899;SDS011;60605;53.716;19.940;2022-09-01T00:58:44;3.10;;;2.80;;
57899;SDS011;60605;53.716;19.940;2022-09-01T01:03:46;3.30;;;2.70;;
57899;SDS011;60605;53.716;19.940;2022-09-01T01:08:48;3.20;;;2.50;;
57899;SDS011;60605;53.716;19.940;2022-09-01T01:13:59;3.20;;;2.50;;
57899;SDS011;60605;53.716;19.940;2022-09-01T01:19:18;4.80;;;2.90;;
57899;SDS011;60605;53.716;19.940;2022-09-01T01:24:41;3.90;;;2.80;;
57899;SDS011;60605;53.716;19.940;2022-09-01T01:29:44;2.80;;;2.40;;
57899;SDS011;60605;53.716;19.940;2022-09-01T01:34:48;6.00;;;2.90;;
57899;SDS011;60605;53.716;19.940;2022-09-01T01:39:50;3.20;;;2.20;;
57899;SDS011;60605;53.716;19.940;2022-09-01T01:44:52;3.10;;;2.20;;
57899;SDS011;60605;53.716;19.940;2022-09-01T01:49:55;3.90;;;2.70;;
57899;SDS011;60605;53.716;19.940;2022-09-01T01:54:58;3.30;;;2.70;;
57899;SDS011;60605;53.716;19.940;2022-09-01T02:00:06;3.10;;;2.40;;
57899;SDS011;60605;53.716;19.940;2022-09-01T02:05:11;6.90;;;2.70;;
57899;SDS011;60605;53.716;19.940;2022-09-01T02:10:13;6.80;;;3.10;;
57899;SDS011;60605;53.716;19.940;2022-09-01T02:15:15;3.50;;;2.60;;
57899;SDS011;60605;53.716;19.940;2022-09-01T02:20:17;4.00;;;2.30;;
57899;SDS011;60605;53.716;19.940;2022-09-01T02:25:21;6.70;;;2.70;;
57899;SDS011;60605;53.716;19.940;2022-09-01T02:30:24;3.50;;;2.40;;
57899;SDS011;60605;53.716;19.940;2022-09-01T02:35:28;3.10;;;2.20;;
57899;SDS011;60605;53.716;19.940;2022-09-01T02:40:33;3.00;;;2.20;;
57899;SDS011;60605;53.716;19.940;2022-09-01T02:45:35;5.10;;;2.10;;
57899;SDS011;60605;53.716;19.940;2022-09-01T02:50:39;2.30;;;1.80;;
57899;SDS011;60605;53.716;19.940;2022-09-01T02:55:42;2.10;;;1.90;;
57899;SDS011;60605;53.716;19.940;2022-09-01T03:00:45;4.40;;;2.00;;
57899;SDS011;60605;53.716;19.940;2022-09-01T03:05:53;4.40;;;1.80;;
57899;SDS011;60605;53.716;19.940;2022-09-01T03:10:57;3.00;;;2.20;;
57899;SDS011;60605;53.716;19.940;2022-09-01T03:16:04;2.60;;;2.10;;
57899;SDS011;60605;53.716;19.940;2022-09-01T03:21:08;2.60;;;2.40;;
57899;SDS011;60605;53.716;19.940;2022-09-01T03:26:16;3.20;;;2.10;;
57899;SDS011;60605;53.716;19.940;2022-09-01T03:31:21;2.70;;;2.40;;
57899;SDS011;60605;53.716;19.940;2022-09-01T03:36:27;3.00;;;2.50;;
57899;SDS011;60605;53.716;19.940;2022-09-01T03:41:31;4.60;;;2.40;;
57899;SDS011;60605;53.716;19.940;2022-09-01T03:46:33;2.90;;;2.70;;
57899;SDS011;60605;53.716;19.940;2022-09-01T03:51:38;3.50;;;2.30;;
57899;SDS011;60605;53.716;19.940;2022-09-01T03:56:41;2.40;;;2.20;;
57899;SDS011;60605;53.716;19.940;2022-09-01T04:01:44;2.70;;;2.50;;
57899;SDS011;60605;53.716;19.940;2022-09-01T04:06:47;3.90;;;2.80;;
57899;SDS011;60605;53.716;19.940;2022-09-01T04:11:49;3.30;;;2.80;;
57899;SDS011;60605;53.716;19.940;2022-09-01T04:16:53;2.40;;;2.20;;
57899;SDS011;60605;53.716;19.940;2022-09-01T04:22:14;5.40;;;2.80;;
57899;SDS011;60605;53.716;19.940;2022-09-01T04:27:18;5.10;;;2.90;;
57899;SDS011;60605;53.716;19.940;2022-09-01T04:32:22;5.40;;;2.80;;
57899;SDS011;60605;53.716;19.940;2022-09-01T04:37:24;4.80;;;3.00;;
57899;SDS011;60605;53.716;19.940;2022-09-01T04:42:29;4.10;;;2.70;;
57899;SDS011;60605;53.716;19.940;2022-09-01T04:47:32;4.20;;;2.30;;
57899;SDS011;60605;53.716;19.940;2022-09-01T04:52:37;4.20;;;2.30;;
57899;SDS011;60605;53.716;19.940;2022-09-01T04:57:40;4.20;;;2.60;;
57899;SDS011;60605;53.716;19.940;2022-09-01T05:02:43;4.80;;;2.40;;
57899;SDS011;60605;53.716;19.940;2022-09-01T05:07:47;4.00;;;2.50;;
57899;SDS011;60605;53.716;19.940;2022-09-01T05:12:53;4.50;;;2.50;;
57899;SDS011;60605;53.716;19.940;2022-09-01T05:17:55;5.80;;;2.30;;
57899;SDS011;60605;53.716;19.940;2022-09-01T05:23:00;3.60;;;2.20;;
57899;SDS011;60605;53.716;19.940;2022-09-01T05:28:02;4.20;;;2.20;;
57899;SDS011;60605;53.716;19.940;2022-09-01T05:33:05;5.80;;;2.00;;
57899;SDS011;60605;53.716;19.940;2022-09-01T05:38:12;4.00;;;1.70;;
57899;SDS011;60605;53.716;19.940;2022-09-01T05:43:14;3.20;;;2.20;;
57899;SDS011;60605;53.716;19.940;2022-09-01T05:48:17;2.80;;;2.00;;
57899;SDS011;60605;53.716;19.940;2022-09-01T05:53:27;2.90;;;1.80;;
57899;SDS011;60605;53.716;19.940;2022-09-01T05:58:31;2.60;;;1.50;;
57899;SDS011;60605;53.716;19.940;2022-09-01T06:04:00;2.30;;;1.30;;
57899;SDS011;60605;53.716;19.940;2022-09-01T06:09:06;4.70;;;1.30;;
57899;SDS011;60605;53.716;19.940;2022-09-01T06:14:09;1.20;;;1.20;;
57899;SDS011;60605;53.716;19.940;2022-09-01T06:19:12;2.40;;;1.90;;
57899;SDS011;60605;53.716;19.940;2022-09-01T06:24:15;1.60;;;1.50;;
57899;SDS011;60605;53.716;19.940;2022-09-01T06:29:18;1.40;;;1.30;;
57899;SDS011;60605;53.716;19.940;2022-09-01T06:34:21;1.70;;;1.40;;
57899;SDS011;60605;53.716;19.940;2022-09-01T06:39:23;2.30;;;1.40;;
57899;SDS011;60605;53.716;19.940;2022-09-01T06:44:27;1.70;;;1.60;;
57899;SDS011;60605;53.716;19.940;2022-09-01T06:49:33;2.40;;;1.40;;
57899;SDS011;60605;53.716;19.940;2022-09-01T06:54:36;3.50;;;1.50;;
57899;SDS011;60605;53.716;19.940;2022-09-01T06:59:40;2.50;;;1.40;;
57899;SDS011;60605;53.716;19.940;2022-09-01T07:04:44;4.80;;;1.40;;
57899;SDS011;60605;53.716;19.940;2022-09-01T07:09:46;5.00;;;1.50;;
57899;SDS011;60605;53.716;19.940;2022-09-01T07:15:07;4.40;;;1.50;;
57899;SDS011;60605;53.716;19.940;2022-09-01T07:20:31;1.30;;;1.10;;
57899;SDS011;60605;53.716;19.940;2022-09-01T07:26:03;3.00;;;1.30;;
57899;SDS011;60605;53.716;19.940;2022-09-01T07:31:14;2.30;;;1.20;;
57899;SDS011;60605;53.716;19.940;2022-09-01T07:36:42;0.80;;;0.80;;
57899;SDS011;60605;53.716;19.940;2022-09-01T07:42:06;0.90;;;0.90;;
57899;SDS011;60605;53.716;19.940;2022-09-01T07:47:31;0.90;;;0.80;;
57899;SDS011;60605;53.716;19.940;2022-09-01T07:52:57;1.50;;;0.90;;
57899;SDS011;60605;53.716;19.940;2022-09-01T07:58:01;0.80;;;0.80;;
57899;SDS011;60605;53.716;19.940;2022-09-01T08:03:03;0.70;;;0.70;;
57899;SDS011;60605;53.716;19.940;2022-09-01T08:08:05;0.50;;;0.50;;
57899;SDS011;60605;53.716;19.940;2022-09-01T08:13:19;4.40;;;2.40;;
57899;SDS011;60605;53.716;19.940;2022-09-01T08:18:23;1.40;;;1.10;;
57899;SDS011;60605;53.716;19.940;2022-09-01T08:23:25;0.70;;;0.70;;
57899;SDS011;60605;53.716;19.940;2022-09-01T08:28:28;0.80;;;0.80;;
57899;SDS011;60605;53.716;19.940;2022-09-01T08:33:30;0.60;;;0.60;;
57899;SDS011;60605;53.716;19.940;2022-09-01T08:38:35;1.50;;;0.90;;
57899;SDS011;60605;53.716;19.940;2022-09-01T08:43:48;0.80;;;0.80;;
57899;SDS011;60605;53.716;19.940;2022-09-01T08:48:59;1.00;;;0.90;;
57899;SDS011;60605;53.716;19.940;2022-09-01T08:59:35;1.80;;;1.00;;
57899;SDS011;60605;53.716;19.940;2022-09-01T09:05:01;0.70;;;0.70;;
57899;SDS011;60605;53.716;19.940;2022-09-01T09:10:48;0.80;;;0.60;;
57899;SDS011;60605;53.716;19.940;2022-09-01T09:16:00;0.80;;;0.80;;
57899;SDS011;60605;53.716;19.940;2022-09-01T09:21:19;3.10;;;1.10;;
57899;SDS011;60605;53.716;19.940;2022-09-01T09:26:31;1.10;;;0.50;;
57899;SDS011;60605;53.716;19.940;2022-09-01T09:32:00;1.30;;;1.20;;
57899;SDS011;60605;53.716;19.940;2022-09-01T09:37:27;1.70;;;0.80;;
57899;SDS011;60605;53.716;19.940;2022-09-01T09:42:31;2.40;;;1.00;;
57899;SDS011;60605;53.716;19.940;2022-09-01T09:47:38;0.90;;;0.80;;
57899;SDS011;60605;53.716;19.940;2022-09-01T09:52:46;1.40;;;0.70;;
57899;SDS011;60605;53.716;19.940;2022-09-01T09:57:51;0.50;;;0.50;;
57899;SDS011;60605;53.716;19.940;2022-09-01T10:02:57;2.20;;;1.00;;
57899;SDS011;60605;53.716;19.940;2022-09-01T10:08:14;0.60;;;0.60;;
57899;SDS011;60605;53.716;19.940;2022-09-01T10:13:40;1.20;;;0.80;;
57899;SDS011;60605;53.716;19.940;2022-09-01T10:23:45;0.90;;;0.90;;
57899;SDS011;60605;53.716;19.940;2022-09-01T10:33:51;0.80;;;0.60;;
57899;SDS011;60605;53.716;19.940;2022-09-01T10:38:54;0.70;;;0.70;;
57899;SDS011;60605;53.716;19.940;2022-09-01T10:44:09;0.70;;;0.70;;
57899;SDS011;60605;53.716;19.940;2022-09-01T10:49:21;2.00;;;0.90;;
57899;SDS011;60605;53.716;19.940;2022-09-01T10:54:49;0.80;;;0.80;;
57899;SDS011;60605;53.716;19.940;2022-09-01T11:16:39;0.70;;;0.70;;
57899;SDS011;60605;53.716;19.940;2022-09-01T11:22:01;0.80;;;0.80;;
57899;SDS011;60605;53.716;19.940;2022-09-01T11:27:10;0.60;;;0.60;;
57899;SDS011;60605;53.716;19.940;2022-09-01T11:32:33;0.60;;;0.60;;
57899;SDS011;60605;53.716;19.940;2022-09-01T11:37:38;1.60;;;0.80;;
57899;SDS011;60605;53.716;19.940;2022-09-01T11:42:42;1.00;;;0.80;;
57899;SDS011;60605;53.716;19.940;2022-09-01T11:47:48;0.70;;;0.70;;
57899;SDS011;60605;53.716;19.940;2022-09-01T11:58:31;1.60;;;0.80;;
57899;SDS011;60605;53.716;19.940;2022-09-01T12:03:39;1.90;;;0.50;;
57899;SDS011;60605;53.716;19.940;2022-09-01T12:14:08;0.60;;;0.60;;
57899;SDS011;60605;53.716;19.940;2022-09-01T12:19:23;0.80;;;0.80;;
57899;SDS011;60605;53.716;19.940;2022-09-01T12:24:29;0.70;;;0.70;;
57899;SDS011;60605;53.716;19.940;2022-09-01T12:29:36;0.60;;;0.60;;
57899;SDS011;60605;53.716;19.940;2022-09-01T12:39:43;1.10;;;1.00;;
57899;SDS011;60605;53.716;19.940;2022-09-01T12:49:55;0.60;;;0.60;;
57899;SDS011;60605;53.716;19.940;2022-09-01T13:00:16;0.60;;;0.60;;
57899;SDS011;60605;53.716;19.940;2022-09-01T13:05:23;0.70;;;0.70;;
57899;SDS011;60605;53.716;19.940;2022-09-01T13:10:35;0.80;;;0.70;;
57899;SDS011;60605;53.716;19.940;2022-09-01T13:15:46;1.10;;;1.00;;
57899;SDS011;60605;53.716;19.940;2022-09-01T13:20:53;1.80;;;0.80;;
57899;SDS011;60605;53.716;19.940;2022-09-01T13:25:57;1.40;;;1.30;;
57899;SDS011;60605;53.716;19.940;2022-09-01T13:31:03;1.40;;;1.30;;
57899;SDS011;60605;53.716;19.940;2022-09-01T13:36:26;0.60;;;0.60;;
57899;SDS011;60605;53.716;19.940;2022-09-01T13:41:48;0.60;;;0.60;;
57899;SDS011;60605;53.716;19.940;2022-09-01T13:46:50;1.00;;;0.60;;
57899;SDS011;60605;53.716;19.940;2022-09-01T13:52:00;0.60;;;0.50;;
57899;SDS011;60605;53.716;19.940;2022-09-01T13:57:03;1.70;;;0.70;;
57899;SDS011;60605;53.716;19.940;2022-09-01T14:02:06;1.30;;;1.30;;
57899;SDS011;60605;53.716;19.940;2022-09-01T14:07:08;0.60;;;0.60;;
57899;SDS011;60605;53.716;19.940;2022-09-01T14:12:10;0.70;;;0.70;;
57899;SDS011;60605;53.716;19.940;2022-09-01T14:17:14;1.30;;;0.80;;
57899;SDS011;60605;53.716;19.940;2022-09-01T14:22:16;0.60;;;0.60;;
57899;SDS011;60605;53.716;19.940;2022-09-01T14:27:19;0.60;;;0.60;;
57899;SDS011;60605;53.716;19.940;2022-09-01T14:32:21;1.10;;;0.60;;
57899;SDS011;60605;53.716;19.940;2022-09-01T14:37:27;1.30;;;0.80;;
57899;SDS011;60605;53.716;19.940;2022-09-01T14:42:30;0.50;;;0.50;;
57899;SDS011;60605;53.716;19.940;2022-09-01T14:47:32;0.80;;;0.80;;
57899;SDS011;60605;53.716;19.940;2022-09-01T14:52:35;0.80;;;0.80;;
57899;SDS011;60605;53.716;19.940;2022-09-01T14:57:39;0.50;;;0.50;;
57899;SDS011;60605;53.716;19.940;2022-09-01T15:02:42;2.00;;;0.60;;
57899;SDS011;60605;53.716;19.940;2022-09-01T15:07:45;1.10;;;0.80;;
57899;SDS011;60605;53.716;19.940;2022-09-01T15:12:47;0.80;;;0.80;;
57899;SDS011;60605;53.716;19.940;2022-09-01T15:17:50;0.50;;;0.40;;
57899;SDS011;60605;53.716;19.940;2022-09-01T15:22:53;1.00;;;1.00;;
57899;SDS011;60605;53.716;19.940;2022-09-01T15:27:57;1.40;;;0.80;;
57899;SDS011;60605;53.716;19.940;2022-09-01T15:32:59;0.60;;;0.60;;
57899;SDS011;60605;53.716;19.940;2022-09-01T15:38:02;0.60;;;0.60;;
57899;SDS011;60605;53.716;19.940;2022-09-01T15:43:06;1.80;;;1.50;;
57899;SDS011;60605;53.716;19.940;2022-09-01T15:48:08;1.80;;;0.80;;
57899;SDS011;60605;53.716;19.940;2022-09-01T15:53:11;0.40;;;0.30;;
57899;SDS011;60605;53.716;19.940;2022-09-01T15:58:14;0.80;;;0.80;;
57899;SDS011;60605;53.716;19.940;2022-09-01T16:03:18;0.60;;;0.60;;
57899;SDS011;60605;53.716;19.940;2022-09-01T16:08:21;1.60;;;0.70;;
57899;SDS011;60605;53.716;19.940;2022-09-01T16:13:23;2.50;;;0.80;;
57899;SDS011;60605;53.716;19.940;2022-09-01T16:23:40;1.40;;;1.30;;
57899;SDS011;60605;53.716;19.940;2022-09-01T16:28:49;1.10;;;1.10;;
57899;SDS011;60605;53.716;19.940;2022-09-01T16:33:55;0.80;;;0.70;;
57899;SDS011;60605;53.716;19.940;2022-09-01T16:39:21;1.10;;;1.10;;
57899;SDS011;60605;53.716;19.940;2022-09-01T16:49:52;1.10;;;1.00;;
57899;SDS011;60605;53.716;19.940;2022-09-01T17:11:16;0.70;;;0.70;;
57899;SDS011;60605;53.716;19.940;2022-09-01T17:21:52;0.70;;;0.70;;
57899;SDS011;60605;53.716;19.940;2022-09-01T17:27:17;0.90;;;0.90;;
57899;SDS011;60605;53.716;19.940;2022-09-01T17:54:08;1.20;;;1.10;;
57899;SDS011;60605;53.716;19.940;2022-09-01T18:05:14;1.10;;;1.00;;
57899;SDS011;60605;53.716;19.940;2022-09-01T18:10:33;1.80;;;1.20;;
57899;SDS011;60605;53.716;19.940;2022-09-01T18:15:50;1.70;;;1.20;;
57899;SDS011;60605;53.716;19.940;2022-09-01T18:21:46;1.40;;;1.20;;
57899;SDS011;60605;53.716;19.940;2022-09-01T18:26:39;1.20;;;1.20;;
57899;SDS011;60605;53.716;19.940;2022-09-01T18:37:10;2.60;;;1.20;;
57899;SDS011;60605;53.716;19.940;2022-09-01T18:47:34;2.20;;;1.20;;
57899;SDS011;60605;53.716;19.940;2022-09-01T18:52:53;1.50;;;1.40;;
57899;SDS011;60605;53.716;19.940;2022-09-01T18:59:07;1.40;;;1.30;;
57899;SDS011;60605;53.716;19.940;2022-09-01T19:09:20;1.30;;;1.20;;
57899;SDS011;60605;53.716;19.940;2022-09-01T19:25:30;1.30;;;1.20;;
57899;SDS011;60605;53.716;19.940;2022-09-01T19:36:16;10.50;;;9.60;;
57899;SDS011;60605;53.716;19.940;2022-09-01T19:41:39;2.80;;;2.60;;
57899;SDS011;60605;53.716;19.940;2022-09-01T19:46:51;1.70;;;1.60;;
57899;SDS011;60605;53.716;19.940;2022-09-01T19:57:56;2.80;;;1.80;;
57899;SDS011;60605;53.716;19.940;2022-09-01T20:03:06;2.40;;;1.40;;
57899;SDS011;60605;53.716;19.940;2022-09-01T20:18:33;3.40;;;1.40;;
57899;SDS011;60605;53.716;19.940;2022-09-01T20:23:49;1.80;;;1.70;;
57899;SDS011;60605;53.716;19.940;2022-09-01T20:45:13;6.10;;;4.20;;
57899;SDS011;60605;53.716;19.940;2022-09-01T20:50:30;4.70;;;2.40;;
57899;SDS011;60605;53.716;19.940;2022-09-01T21:23:00;2.90;;;2.00;;
57899;SDS011;60605;53.716;19.940;2022-09-01T21:28:07;2.10;;;1.90;;
57899;SDS011;60605;53.716;19.940;2022-09-01T21:33:09;2.90;;;2.00;;
57899;SDS011;60605;53.716;19.940;2022-09-01T21:38:11;6.70;;;2.40;;
57899;SDS011;60605;53.716;19.940;2022-09-01T21:43:14;2.70;;;2.50;;
57899;SDS011;60605;53.716;19.940;2022-09-01T21:48:19;4.40;;;2.70;;
57899;SDS011;60605;53.716;19.940;2022-09-01T21:53:21;3.80;;;3.20;;
57899;SDS011;60605;53.716;19.940;2022-09-01T21:58:23;3.20;;;2.60;;
57899;SDS011;60605;53.716;19.940;2022-09-01T22:03:25;3.50;;;3.20;;
57899;SDS011;60605;53.716;19.940;2022-09-01T22:08:28;5.20;;;3.00;;
57899;SDS011;60605;53.716;19.940;2022-09-01T22:13:30;4.00;;;3.60;;
57899;SDS011;60605;53.716;19.940;2022-09-01T22:18:32;4.70;;;3.00;;
57899;SDS011;60605;53.716;19.940;2022-09-01T22:23:35;4.60;;;2.80;;
57899;SDS011;60605;53.716;19.940;2022-09-01T22:28:38;3.90;;;2.80;;
57899;SDS011;60605;53.716;19.940;2022-09-01T22:33:40;5.70;;;2.60;;
57899;SDS011;60605;53.716;19.940;2022-09-01T22:38:42;4.00;;;2.80;;
57899;SDS011;60605;53.716;19.940;2022-09-01T22:43:44;3.20;;;2.80;;
57899;SDS011;60605;53.716;19.940;2022-09-01T22:48:46;4.40;;;2.80;;
57899;SDS011;60605;53.716;19.940;2022-09-01T22:53:49;4.10;;;3.10;;
57899;SDS011;60605;53.716;19.940;2022-09-01T22:58:53;3.40;;;3.20;;
57899;SDS011;60605;53.716;19.940;2022-09-01T23:03:57;3.90;;;3.40;;
57899;SDS011;60605;53.716;19.940;2022-09-01T23:09:01;4.80;;;3.10;;
57899;SDS011;60605;53.716;19.940;2022-09-01T23:14:04;3.70;;;3.40;;
57899;SDS011;60605;53.716;19.940;2022-09-01T23:19:06;4.50;;;3.30;;
57899;SDS011;60605;53.716;19.940;2022-09-01T23:24:09;3.20;;;2.90;;
57899;SDS011;60605;53.716;19.940;2022-09-01T23:29:11;3.50;;;3.10;;
57899;SDS011;60605;53.716;19.940;2022-09-01T23:34:12;3.20;;;3.00;;
57899;SDS011;60605;53.716;19.940;2022-09-01T23:39:14;5.90;;;2.80;;
57899;SDS011;60605;53.716;19.940;2022-09-01T23:44:16;3.30;;;2.90;;
57899;SDS011;60605;53.716;19.940;2022-09-01T23:49:18;4.20;;;2.90;;
57899;SDS011;60605;53.716;19.940;2022-09-01T23:54:20;4.60;;;2.80;;
57899;SDS011;60605;53.716;19.940;2022-09-01T23:59:23;3.70;;;3.20;;
